Time;durP1;ratioP1;P1;durP2;ratioP2;P2;SDS_P1;SDS_P2;PMS_P1;PMS_P2;Temp;Humidity;BMP_temperature;BMP_pressure;BME280_temperature;BME280_humidity;BME280_pressure;Samples;Min_cycle;Max_cycle;Signal;HPM_P1;HPM_P2
2021/09/13 00:01:46;;;;;;;1.85;0.70;;;;;;;;;;5065935;28;20076;-80
2021/09/13 00:04:12;;;;;;;1.70;0.82;;;;;;;;;;5056823;28;20615;-81
2021/09/13 00:06:39;;;;;;;1.58;0.70;;;;;;;;;;5054500;28;20499;-80
2021/09/13 00:09:05;;;;;;;1.40;0.82;;;;;;;;;;5073003;28;21224;-81
2021/09/13 00:11:32;;;;;;;1.45;0.70;;;;;;;;;;5084081;28;20052;-80
2021/09/13 00:13:58;;;;;;;1.25;0.70;;;;;;;;;;5069068;28;21658;-80
2021/09/13 00:16:25;;;;;;;2.13;0.65;;;;;;;;;;5052047;28;20058;-81
2021/09/13 00:18:51;;;;;;;1.58;0.80;;;;;;;;;;5058706;28;20040;-82
2021/09/13 00:21:17;;;;;;;0.98;0.68;;;;;;;;;;5042222;28;20049;-82
2021/09/13 00:23:44;;;;;;;1.65;0.80;;;;;;;;;;5070071;28;20054;-81
2021/09/13 00:26:11;;;;;;;1.77;0.77;;;;;;;;;;5056286;28;20028;-82
2021/09/13 00:28:37;;;;;;;4.32;0.85;;;;;;;;;;5063557;28;20060;-82
2021/09/13 00:31:03;;;;;;;1.50;0.70;;;;;;;;;;5070582;28;20124;-81
2021/09/13 00:33:30;;;;;;;1.13;0.70;;;;;;;;;;5052213;28;20052;-81
2021/09/13 00:35:56;;;;;;;2.00;1.02;;;;;;;;;;5067187;28;20048;-80
2021/09/13 00:38:23;;;;;;;1.20;0.55;;;;;;;;;;5078411;28;20059;-79
2021/09/13 00:40:49;;;;;;;2.30;0.80;;;;;;;;;;5083188;28;20059;-80
2021/09/13 00:43:16;;;;;;;1.48;0.70;;;;;;;;;;5083709;28;20058;-80
2021/09/13 00:45:42;;;;;;;3.22;0.90;;;;;;;;;;5071872;28;20197;-81
2021/09/13 00:48:09;;;;;;;1.27;0.80;;;;;;;;;;5073505;28;20055;-80
2021/09/13 00:50:35;;;;;;;1.60;0.70;;;;;;;;;;5073295;28;20060;-80
2021/09/13 00:53:02;;;;;;;3.30;1.00;;;;;;;;;;5072983;28;20071;-81
2021/09/13 00:55:28;;;;;;;1.45;0.68;;;;;;;;;;5080823;28;20054;-80
2021/09/13 00:57:55;;;;;;;1.92;0.73;;;;;;;;;;5070137;28;20580;-80
2021/09/13 01:00:22;;;;;;;1.83;0.70;;;;;;;;;;5056986;28;20043;-80
2021/09/13 01:02:48;;;;;;;1.42;0.80;;;;;;;;;;5074280;28;20545;-80
2021/09/13 01:05:15;;;;;;;2.17;0.70;;;;;;;;;;5073580;28;20094;-81
2021/09/13 01:07:41;;;;;;;1.75;0.70;;;;;;;;;;5071971;28;20064;-81
2021/09/13 01:10:08;;;;;;;2.85;1.00;;;;;;;;;;5060880;28;20834;-80
2021/09/13 01:12:35;;;;;;;1.88;0.80;;;;;;;;;;5060591;28;20059;-81
2021/09/13 01:15:01;;;;;;;2.08;0.88;;;;;;;;;;5064279;28;20067;-80
2021/09/13 01:17:28;;;;;;;1.63;0.68;;;;;;;;;;5069960;28;20065;-80
2021/09/13 01:19:54;;;;;;;1.30;0.85;;;;;;;;;;5071819;28;20064;-80
2021/09/13 01:22:21;;;;;;;3.13;0.82;;;;;;;;;;5043954;28;20110;-80
2021/09/13 01:24:47;;;;;;;1.55;0.70;;;;;;;;;;5057981;28;20051;-80
2021/09/13 01:27:14;;;;;;;3.45;0.70;;;;;;;;;;5071524;28;20148;-80
2021/09/13 01:29:41;;;;;;;2.40;0.88;;;;;;;;;;5071841;28;20064;-80
2021/09/13 01:32:08;;;;;;;2.45;0.90;;;;;;;;;;5071836;28;20079;-81
2021/09/13 01:34:34;;;;;;;3.50;1.00;;;;;;;;;;5071821;28;20063;-79
2021/09/13 01:37:01;;;;;;;2.22;0.80;;;;;;;;;;5061952;28;20064;-79
2021/09/13 01:39:27;;;;;;;2.72;0.82;;;;;;;;;;5069721;28;20107;-79
2021/09/13 01:41:54;;;;;;;2.65;0.80;;;;;;;;;;5057660;28;20064;-80
2021/09/13 01:44:20;;;;;;;1.65;0.65;;;;;;;;;;5071869;28;20042;-80
2021/09/13 01:46:46;;;;;;;1.85;0.93;;;;;;;;;;5061588;28;20060;-80
2021/09/13 01:49:13;;;;;;;1.80;0.80;;;;;;;;;;5063428;28;20745;-80
2021/09/13 01:51:40;;;;;;;2.75;0.80;;;;;;;;;;5037338;28;20110;-80
2021/09/13 01:54:07;;;;;;;1.60;0.82;;;;;;;;;;5069427;28;20060;-80
2021/09/13 01:56:33;;;;;;;2.63;1.00;;;;;;;;;;5069293;28;20075;-79
2021/09/13 01:59:00;;;;;;;1.95;0.80;;;;;;;;;;5060347;28;20150;-79
2021/09/13 02:01:27;;;;;;;1.48;0.70;;;;;;;;;;5069366;28;20075;-79
2021/09/13 02:03:53;;;;;;;2.50;0.90;;;;;;;;;;5052238;28;20056;-79
2021/09/13 02:06:20;;;;;;;3.17;0.80;;;;;;;;;;5077295;28;20028;-80
2021/09/13 02:08:47;;;;;;;3.05;0.90;;;;;;;;;;5079665;28;20500;-79
2021/09/13 02:11:13;;;;;;;3.03;1.02;;;;;;;;;;5075149;28;20452;-79
2021/09/13 02:13:40;;;;;;;4.22;0.90;;;;;;;;;;5053806;28;21079;-80
2021/09/13 02:16:07;;;;;;;3.13;1.00;;;;;;;;;;5046516;28;20770;-80
2021/09/13 02:18:33;;;;;;;2.92;1.00;;;;;;;;;;5058390;28;20513;-81
2021/09/13 02:21:00;;;;;;;1.42;0.80;;;;;;;;;;5057896;28;20198;-81
2021/09/13 02:23:26;;;;;;;1.27;0.73;;;;;;;;;;5064657;28;20063;-81
2021/09/13 02:25:53;;;;;;;3.03;0.90;;;;;;;;;;5061107;28;20055;-80
2021/09/13 02:28:19;;;;;;;2.25;0.80;;;;;;;;;;5055940;28;20044;-81
2021/09/13 02:30:46;;;;;;;1.45;0.75;;;;;;;;;;5061573;28;20075;-81
2021/09/13 02:33:12;;;;;;;2.30;1.02;;;;;;;;;;5043179;28;20059;-81
2021/09/13 02:35:38;;;;;;;3.22;0.90;;;;;;;;;;5065926;28;20052;-82
2021/09/13 02:38:05;;;;;;;2.08;0.85;;;;;;;;;;5041824;28;20473;-82
2021/09/13 02:40:31;;;;;;;3.95;0.90;;;;;;;;;;5057896;28;20125;-81
2021/09/13 02:42:58;;;;;;;2.90;0.95;;;;;;;;;;5068445;28;20076;-80
2021/09/13 02:45:24;;;;;;;2.30;0.82;;;;;;;;;;5062707;28;20499;-80
2021/09/13 02:47:51;;;;;;;2.42;0.90;;;;;;;;;;5060683;28;20064;-81
2021/09/13 02:50:17;;;;;;;2.03;0.90;;;;;;;;;;5075024;28;20077;-81
2021/09/13 02:52:43;;;;;;;3.38;1.02;;;;;;;;;;5079894;28;20060;-81
2021/09/13 02:55:10;;;;;;;4.18;1.05;;;;;;;;;;5064252;28;20056;-81
2021/09/13 02:57:36;;;;;;;2.20;0.95;;;;;;;;;;5074926;28;20063;-82
2021/09/13 03:00:03;;;;;;;1.73;0.80;;;;;;;;;;5076735;28;20098;-81
2021/09/13 03:02:30;;;;;;;2.08;1.10;;;;;;;;;;5074296;28;20090;-82
2021/09/13 03:04:56;;;;;;;2.75;1.00;;;;;;;;;;5076217;28;20512;-82
2021/09/13 03:07:22;;;;;;;2.75;1.00;;;;;;;;;;5063139;28;20064;-81
2021/09/13 03:09:49;;;;;;;2.60;0.90;;;;;;;;;;5065466;28;20525;-81
2021/09/13 03:12:15;;;;;;;2.83;1.15;;;;;;;;;;5056602;28;20055;-81
2021/09/13 03:14:42;;;;;;;2.13;0.80;;;;;;;;;;5065052;28;20496;-81
2021/09/13 03:17:08;;;;;;;3.50;0.93;;;;;;;;;;5071935;28;21369;-83
2021/09/13 03:19:34;;;;;;;3.38;0.95;;;;;;;;;;5064210;28;20064;-82
2021/09/13 03:22:01;;;;;;;2.22;0.90;;;;;;;;;;5069523;28;20060;-82
2021/09/13 03:24:27;;;;;;;2.70;0.88;;;;;;;;;;5066569;28;20089;-82
2021/09/13 03:26:54;;;;;;;2.33;0.90;;;;;;;;;;5075413;28;20077;-82
2021/09/13 03:29:20;;;;;;;2.13;1.00;;;;;;;;;;5080089;28;20067;-81
2021/09/13 03:31:47;;;;;;;2.60;1.10;;;;;;;;;;5066226;28;20029;-80
2021/09/13 03:34:13;;;;;;;2.08;1.00;;;;;;;;;;5067251;28;20155;-80
2021/09/13 03:36:40;;;;;;;2.20;0.90;;;;;;;;;;5052193;28;20059;-80
2021/09/13 03:39:07;;;;;;;3.97;1.13;;;;;;;;;;5045855;28;21622;-82
2021/09/13 03:41:34;;;;;;;3.40;1.00;;;;;;;;;;5078268;28;20064;-81
2021/09/13 03:44:00;;;;;;;3.10;0.88;;;;;;;;;;5063734;28;20064;-80
2021/09/13 03:46:26;;;;;;;2.78;0.88;;;;;;;;;;5064408;28;20071;-79
2021/09/13 03:48:53;;;;;;;2.55;0.93;;;;;;;;;;5079341;28;20052;-80
2021/09/13 03:51:19;;;;;;;4.03;1.23;;;;;;;;;;5083735;28;20468;-80
2021/09/13 03:53:45;;;;;;;2.90;1.00;;;;;;;;;;5083421;28;20270;-80
2021/09/13 03:56:12;;;;;;;2.13;1.00;;;;;;;;;;5078818;28;20056;-80
2021/09/13 03:58:38;;;;;;;4.00;1.23;;;;;;;;;;5079949;28;20056;-83
2021/09/13 04:01:05;;;;;;;4.57;1.40;;;;;;;;;;5067278;28;20067;-81
2021/09/13 04:03:38;;;;;;;2.75;1.00;;;;;;;;;;5072940;28;20056;-81
2021/09/13 04:06:05;;;;;;;3.65;1.13;;;;;;;;;;5076469;28;20068;-81
2021/09/13 04:13:24;;;;;;;3.03;1.00;;;;;;;;;;5081097;28;20037;-81
2021/09/13 04:15:50;;;;;;;1.65;0.90;;;;;;;;;;5071869;28;20511;-82
2021/09/13 04:18:21;;;;;;;2.20;0.90;;;;;;;;;;5057525;28;20373;-79
2021/09/13 04:20:47;;;;;;;2.80;1.00;;;;;;;;;;5075502;28;20032;-79
2021/09/13 04:23:14;;;;;;;2.33;0.80;;;;;;;;;;5064457;28;20060;-81
2021/09/13 04:25:40;;;;;;;2.47;1.00;;;;;;;;;;5046757;28;20064;-82
2021/09/13 04:28:07;;;;;;;3.25;1.20;;;;;;;;;;5073606;28;20062;-81
2021/09/13 04:30:33;;;;;;;4.15;1.30;;;;;;;;;;5063017;28;20060;-79
2021/09/13 04:32:59;;;;;;;3.42;1.10;;;;;;;;;;5039424;28;20056;-79
2021/09/13 04:35:26;;;;;;;4.30;1.10;;;;;;;;;;5056055;28;20149;-79
2021/09/13 04:37:52;;;;;;;2.53;1.08;;;;;;;;;;5050763;28;20084;-79
2021/09/13 04:40:19;;;;;;;4.47;1.05;;;;;;;;;;5060580;28;20552;-80
2021/09/13 04:42:45;;;;;;;2.75;1.02;;;;;;;;;;5082597;28;20064;-79
2021/09/13 04:45:13;;;;;;;2.80;0.85;;;;;;;;;;5084868;28;20066;-80
2021/09/13 04:47:39;;;;;;;4.90;1.15;;;;;;;;;;5067159;28;20073;-80
2021/09/13 04:50:06;;;;;;;2.42;0.82;;;;;;;;;;5064370;28;20203;-79
2021/09/13 04:52:32;;;;;;;2.80;1.10;;;;;;;;;;5082469;28;20468;-79
2021/09/13 04:54:59;;;;;;;4.68;1.23;;;;;;;;;;5061356;28;20070;-75
2021/09/13 04:57:25;;;;;;;7.65;2.22;;;;;;;;;;5082516;28;20051;-75
2021/09/13 04:59:52;;;;;;;10.15;2.20;;;;;;;;;;5080244;28;20064;-75
2021/09/13 05:02:18;;;;;;;6.88;1.50;;;;;;;;;;5067008;28;20033;-77
2021/09/13 05:04:44;;;;;;;6.75;1.45;;;;;;;;;;5051308;28;20082;-78
2021/09/13 05:07:11;;;;;;;6.72;1.50;;;;;;;;;;5074350;28;20070;-78
2021/09/13 05:09:37;;;;;;;7.20;1.48;;;;;;;;;;5044766;28;20420;-75
2021/09/13 05:12:04;;;;;;;3.42;1.23;;;;;;;;;;5061132;28;20048;-78
2021/09/13 05:14:30;;;;;;;6.20;1.83;;;;;;;;;;5077057;28;20063;-77
2021/09/13 05:16:57;;;;;;;5.20;1.23;;;;;;;;;;5073845;28;20048;-77
2021/09/13 05:19:23;;;;;;;4.38;1.35;;;;;;;;;;5060634;28;20067;-77
2021/09/13 05:21:49;;;;;;;3.60;1.33;;;;;;;;;;5074035;28;20475;-77
2021/09/13 05:24:16;;;;;;;3.63;1.20;;;;;;;;;;5078762;28;20131;-77
2021/09/13 05:26:43;;;;;;;3.38;1.02;;;;;;;;;;5070152;28;20101;-77
2021/09/13 05:29:09;;;;;;;2.53;1.20;;;;;;;;;;5079929;28;20406;-77
2021/09/13 05:31:36;;;;;;;6.20;1.40;;;;;;;;;;5068369;28;20029;-77
2021/09/13 05:34:02;;;;;;;3.63;1.17;;;;;;;;;;5057469;28;20072;-77
2021/09/13 05:36:29;;;;;;;4.45;1.10;;;;;;;;;;5058650;28;20090;-78
2021/09/13 05:38:55;;;;;;;3.20;1.27;;;;;;;;;;5071939;28;20056;-78
2021/09/13 05:41:21;;;;;;;4.43;1.20;;;;;;;;;;5049937;28;20481;-78
2021/09/13 05:43:48;;;;;;;4.78;1.33;;;;;;;;;;5044653;28;20059;-78
2021/09/13 05:46:14;;;;;;;5.10;1.27;;;;;;;;;;5071635;28;20558;-77
2021/09/13 05:48:41;;;;;;;4.55;1.20;;;;;;;;;;5060378;28;20060;-77
2021/09/13 05:51:07;;;;;;;3.08;1.10;;;;;;;;;;5064638;28;20072;-78
2021/09/13 05:53:33;;;;;;;3.50;1.30;;;;;;;;;;5061905;28;20059;-78
2021/09/13 05:56:00;;;;;;;4.15;1.20;;;;;;;;;;5051893;28;20640;-77
2021/09/13 05:58:26;;;;;;;3.97;1.20;;;;;;;;;;5060887;28;20456;-77
2021/09/13 06:00:53;;;;;;;3.90;1.17;;;;;;;;;;5068242;28;20107;-77
2021/09/13 06:03:19;;;;;;;4.18;1.10;;;;;;;;;;5072555;28;20051;-77
2021/09/13 06:05:46;;;;;;;3.90;1.00;;;;;;;;;;5082709;28;20067;-76
2021/09/13 06:08:12;;;;;;;2.95;1.23;;;;;;;;;;5060138;28;20581;-77
2021/09/13 06:10:38;;;;;;;3.30;1.15;;;;;;;;;;5077398;28;20063;-77
2021/09/13 06:13:06;;;;;;;4.18;1.10;;;;;;;;;;5076358;28;20092;-77
2021/09/13 06:15:32;;;;;;;3.13;1.00;;;;;;;;;;5045996;28;20059;-78
2021/09/13 06:17:59;;;;;;;2.42;1.10;;;;;;;;;;5059406;28;20060;-78
2021/09/13 06:20:26;;;;;;;4.20;1.27;;;;;;;;;;5064998;28;20129;-78
2021/09/13 06:22:56;;;;;;;2.72;1.10;;;;;;;;;;5080791;28;20066;-77
2021/09/13 06:25:22;;;;;;;4.65;1.10;;;;;;;;;;5081287;28;20071;-78
2021/09/13 06:27:49;;;;;;;6.10;1.30;;;;;;;;;;5067147;28;20052;-78
2021/09/13 06:30:15;;;;;;;4.20;1.38;;;;;;;;;;5082664;28;20116;-78
2021/09/13 06:32:41;;;;;;;2.63;1.20;;;;;;;;;;5078867;28;20060;-77
2021/09/13 06:35:08;;;;;;;2.78;1.23;;;;;;;;;;5075827;28;20524;-79
2021/09/13 06:37:34;;;;;;;3.65;1.30;;;;;;;;;;5044382;28;20029;-78
2021/09/13 06:40:01;;;;;;;2.78;1.20;;;;;;;;;;5048885;28;20746;-78
2021/09/13 06:42:30;;;;;;;2.08;0.90;;;;;;;;;;5073089;28;20459;-78
2021/09/13 06:44:57;;;;;;;3.75;1.15;;;;;;;;;;5072594;28;20052;-76
2021/09/13 06:49:56;;;;;;;4.20;1.10;;;;;;;;;;5081698;28;20544;-78
2021/09/13 06:52:22;;;;;;;3.75;1.08;;;;;;;;;;5087219;28;20052;-78
2021/09/13 06:54:49;;;;;;;3.15;0.95;;;;;;;;;;5072081;28;20078;-78
2021/09/13 06:57:15;;;;;;;1.98;1.00;;;;;;;;;;5080265;28;20052;-78
2021/09/13 06:59:42;;;;;;;2.85;0.88;;;;;;;;;;5076730;28;20464;-78
2021/09/13 07:02:08;;;;;;;3.95;1.20;;;;;;;;;;5063102;28;20072;-76
2021/09/13 07:04:35;;;;;;;2.20;0.95;;;;;;;;;;5058858;28;20052;-77
2021/09/13 07:07:01;;;;;;;2.50;1.10;;;;;;;;;;5076012;28;20059;-77
2021/09/13 07:09:28;;;;;;;2.42;0.90;;;;;;;;;;5070817;28;20049;-77
2021/09/13 07:11:54;;;;;;;2.40;1.15;;;;;;;;;;5060382;28;20523;-76
2021/09/13 07:14:21;;;;;;;2.85;1.20;;;;;;;;;;5052104;28;20222;-77
2021/09/13 07:16:47;;;;;;;3.03;0.90;;;;;;;;;;5069520;28;20067;-76
2021/09/13 07:19:13;;;;;;;2.55;1.00;;;;;;;;;;5049496;28;20550;-77
2021/09/13 07:21:40;;;;;;;1.60;0.73;;;;;;;;;;5070082;28;20211;-79
2021/09/13 07:24:06;;;;;;;3.63;1.15;;;;;;;;;;5064188;28;20044;-79
2021/09/13 07:26:33;;;;;;;2.10;1.13;;;;;;;;;;5070259;28;20102;-78
2021/09/13 07:28:59;;;;;;;3.38;1.20;;;;;;;;;;5044280;28;20104;-78
2021/09/13 07:31:25;;;;;;;4.60;1.25;;;;;;;;;;5066041;28;20127;-78
2021/09/13 07:33:52;;;;;;;2.47;1.02;;;;;;;;;;5081612;28;20472;-78
2021/09/13 07:36:18;;;;;;;1.77;0.85;;;;;;;;;;5091284;28;20132;-76
2021/09/13 07:38:45;;;;;;;3.10;1.10;;;;;;;;;;5077356;28;20067;-77
2021/09/13 07:41:11;;;;;;;2.50;1.00;;;;;;;;;;5083154;28;20621;-78
2021/09/13 07:43:38;;;;;;;3.88;1.00;;;;;;;;;;5083685;28;20437;-78
2021/09/13 07:46:04;;;;;;;2.90;0.98;;;;;;;;;;5038461;28;20120;-77
2021/09/13 07:48:30;;;;;;;2.47;0.73;;;;;;;;;;5073185;28;20055;-78
2021/09/13 07:50:57;;;;;;;4.35;1.27;;;;;;;;;;5081321;28;20166;-77
2021/09/13 07:53:23;;;;;;;2.25;0.88;;;;;;;;;;5080497;28;20070;-77
2021/09/13 07:55:50;;;;;;;2.78;1.08;;;;;;;;;;5074701;28;20044;-77
2021/09/13 07:58:16;;;;;;;1.92;0.80;;;;;;;;;;5070139;28;20156;-77
2021/09/13 08:00:43;;;;;;;2.10;0.70;;;;;;;;;;5076911;28;20193;-77
2021/09/13 08:03:09;;;;;;;4.95;0.90;;;;;;;;;;5055143;28;20056;-77
2021/09/13 08:05:35;;;;;;;2.58;1.13;;;;;;;;;;5062118;28;20055;-78
2021/09/13 08:08:02;;;;;;;2.05;0.90;;;;;;;;;;5082118;28;20478;-77
2021/09/13 08:10:28;;;;;;;2.63;0.80;;;;;;;;;;5080831;28;20070;-78
2021/09/13 08:12:55;;;;;;;2.90;1.00;;;;;;;;;;5071719;28;20404;-76
2021/09/13 08:15:23;;;;;;;2.15;0.80;;;;;;;;;;5078278;28;20095;-78
2021/09/13 08:17:50;;;;;;;2.58;0.80;;;;;;;;;;5059125;28;20170;-76
2021/09/13 08:20:16;;;;;;;2.03;0.85;;;;;;;;;;5073165;28;20052;-77
2021/09/13 08:22:43;;;;;;;2.30;0.93;;;;;;;;;;5078175;28;20066;-77
2021/09/13 08:25:09;;;;;;;3.78;1.27;;;;;;;;;;5072470;28;20116;-77
2021/09/13 08:27:36;;;;;;;3.42;0.98;;;;;;;;;;5074445;28;20058;-77
2021/09/13 08:30:02;;;;;;;2.80;1.10;;;;;;;;;;5070253;28;20767;-77
2021/09/13 08:32:29;;;;;;;2.88;1.00;;;;;;;;;;5055521;28;20503;-77
2021/09/13 08:34:55;;;;;;;2.40;0.90;;;;;;;;;;5057176;28;20072;-78
2021/09/13 08:37:22;;;;;;;2.00;0.90;;;;;;;;;;5066244;28;20072;-77
2021/09/13 08:39:48;;;;;;;1.50;0.93;;;;;;;;;;5062158;28;20072;-78
2021/09/13 08:42:15;;;;;;;2.63;1.02;;;;;;;;;;5075305;28;20040;-78
2021/09/13 08:44:45;;;;;;;2.72;1.05;;;;;;;;;;5073371;28;20170;-78
2021/09/13 08:47:18;;;;;;;1.75;0.88;;;;;;;;;;5083174;28;20539;-78
2021/09/13 08:49:47;;;;;;;2.83;0.98;;;;;;;;;;5062339;28;20068;-78
2021/09/13 08:52:14;;;;;;;3.55;0.98;;;;;;;;;;5061807;28;20124;-78
2021/09/13 08:54:41;;;;;;;2.35;0.90;;;;;;;;;;5058388;28;20101;-78
2021/09/13 08:57:08;;;;;;;3.97;1.20;;;;;;;;;;5053176;28;20073;-78
2021/09/13 08:59:36;;;;;;;3.00;0.80;;;;;;;;;;5053120;28;20073;-78
2021/09/13 09:02:03;;;;;;;1.60;0.80;;;;;;;;;;5035440;28;20043;-78
2021/09/13 09:04:30;;;;;;;2.28;0.98;;;;;;;;;;5055857;28;20110;-78
2021/09/13 09:07:09;;;;;;;2.63;1.17;;;;;;;;;;5052863;28;20053;-78
2021/09/13 09:09:36;;;;;;;2.50;1.33;;;;;;;;;;5070656;28;20059;-78
2021/09/13 09:12:13;;;;;;;2.25;0.80;;;;;;;;;;5066988;28;20056;-78
2021/09/13 09:14:44;;;;;;;2.65;0.90;;;;;;;;;;5059201;28;20061;-78
2021/09/13 09:17:26;;;;;;;2.70;0.90;;;;;;;;;;5071720;28;20060;-78
2021/09/13 09:20:10;;;;;;;2.00;0.82;;;;;;;;;;5078208;28;20102;-78
2021/09/13 09:22:39;;;;;;;2.28;1.00;;;;;;;;;;5077895;28;20071;-77
2021/09/13 09:25:07;;;;;;;2.90;0.90;;;;;;;;;;5074910;28;20385;-77
2021/09/13 09:27:52;;;;;;;2.67;0.98;;;;;;;;;;5075664;28;20116;-78
2021/09/13 09:30:18;;;;;;;2.15;1.05;;;;;;;;;;5075135;28;21169;-78
2021/09/13 09:33:00;;;;;;;2.78;1.00;;;;;;;;;;5060949;28;20056;-78
2021/09/13 09:35:27;;;;;;;2.28;0.93;;;;;;;;;;5067214;28;20269;-78
2021/09/13 09:37:53;;;;;;;2.50;1.00;;;;;;;;;;5061032;28;20052;-78
2021/09/13 09:40:29;;;;;;;3.00;1.00;;;;;;;;;;5066500;28;20051;-78
2021/09/13 09:42:56;;;;;;;4.35;1.10;;;;;;;;;;5067497;28;20068;-77
2021/09/13 09:45:22;;;;;;;2.03;1.00;;;;;;;;;;5074472;28;20536;-78
2021/09/13 09:48:04;;;;;;;3.40;0.90;;;;;;;;;;5068988;28;20762;-78
2021/09/13 09:50:30;;;;;;;2.03;1.05;;;;;;;;;;5074811;28;20068;-78
2021/09/13 09:53:13;;;;;;;4.43;1.20;;;;;;;;;;5076967;28;20136;-78
2021/09/13 09:55:40;;;;;;;1.92;0.90;;;;;;;;;;5077669;28;20079;-78
2021/09/13 09:58:10;;;;;;;3.63;1.02;;;;;;;;;;5060969;28;20068;-78
2021/09/13 10:00:37;;;;;;;2.50;0.90;;;;;;;;;;5062444;28;20125;-78
2021/09/13 10:03:04;;;;;;;1.65;0.95;;;;;;;;;;5070404;28;20730;-78
2021/09/13 10:05:32;;;;;;;2.83;0.98;;;;;;;;;;5057401;28;20064;-77
2021/09/13 10:07:58;;;;;;;2.42;0.70;;;;;;;;;;5055774;28;20068;-78
2021/09/13 10:10:30;;;;;;;2.70;1.17;;;;;;;;;;5080098;28;20111;-78
2021/09/13 10:12:56;;;;;;;;;;;;;;;;;;5054869;28;20126;-78
2021/09/13 10:15:24;;;;;;;2.80;0.90;;;;;;;;;;5077062;28;19962;-78
2021/09/13 10:17:51;;;;;;;2.35;0.80;;;;;;;;;;5068715;28;20074;-77
2021/09/13 10:20:17;;;;;;;2.58;0.90;;;;;;;;;;5059725;28;20536;-77
2021/09/13 10:22:45;;;;;;;3.45;1.00;;;;;;;;;;5077841;28;20440;-78
2021/09/13 10:25:12;;;;;;;2.00;1.00;;;;;;;;;;5055665;28;20040;-80
2021/09/13 10:27:40;;;;;;;2.00;0.93;;;;;;;;;;5045207;28;20041;-79
2021/09/13 10:30:10;;;;;;;2.97;1.13;;;;;;;;;;5067065;28;20341;-78
2021/09/13 10:32:36;;;;;;;2.55;0.80;;;;;;;;;;5055008;28;20033;-78
2021/09/13 10:35:03;;;;;;;2.85;0.80;;;;;;;;;;5062156;28;20052;-78
2021/09/13 10:37:40;;;;;;;2.25;0.90;;;;;;;;;;5079515;28;20112;-78
2021/09/13 10:40:15;;;;;;;2.63;0.90;;;;;;;;;;5082557;28;20067;-78
2021/09/13 10:42:43;;;;;;;2.08;1.05;;;;;;;;;;5062055;28;20407;-77
2021/09/13 10:45:22;;;;;;;2.15;1.00;;;;;;;;;;5081667;28;20050;-78
2021/09/13 10:48:01;;;;;;;2.15;0.93;;;;;;;;;;5086863;28;20063;-79
2021/09/13 10:50:34;;;;;;;2.65;1.00;;;;;;;;;;5067584;28;20453;-78
2021/09/13 10:53:01;;;;;;;2.03;0.88;;;;;;;;;;5068349;28;20158;-78
2021/09/13 10:55:28;;;;;;;2.28;0.90;;;;;;;;;;5064807;28;20413;-78
2021/09/13 10:57:54;;;;;;;2.75;1.00;;;;;;;;;;5061874;28;20094;-78
2021/09/13 11:00:43;;;;;;;2.92;1.27;;;;;;;;;;5073777;28;20495;-78
2021/09/13 11:03:28;;;;;;;4.47;1.20;;;;;;;;;;5052956;28;20060;-78
2021/09/13 11:06:13;;;;;;;3.17;1.20;;;;;;;;;;5084566;28;20113;-79
2021/09/13 11:08:56;;;;;;;2.40;1.00;;;;;;;;;;5053125;28;20029;-77
2021/09/13 11:11:29;;;;;;;4.60;1.25;;;;;;;;;;5049823;28;20039;-77
2021/09/13 11:13:55;;;;;;;2.22;0.90;;;;;;;;;;5067621;28;20067;-78
2021/09/13 11:16:22;;;;;;;2.40;1.05;;;;;;;;;;5062984;28;20086;-77
2021/09/13 11:18:49;;;;;;;2.05;0.90;;;;;;;;;;5076585;28;20064;-77
2021/09/13 11:21:26;;;;;;;2.10;0.85;;;;;;;;;;5082818;28;20668;-78
2021/09/13 11:23:54;;;;;;;1.63;0.85;;;;;;;;;;5084371;28;20044;-76
2021/09/13 11:26:28;;;;;;;3.15;0.90;;;;;;;;;;5082560;28;20112;-77
2021/09/13 11:28:59;;;;;;;3.53;1.08;;;;;;;;;;5082147;28;20070;-77
2021/09/13 11:31:26;;;;;;;1.92;0.88;;;;;;;;;;5062705;28;20060;-77
2021/09/13 11:33:52;;;;;;;2.50;0.85;;;;;;;;;;5077476;28;20109;-77
2021/09/13 11:36:26;;;;;;;1.90;0.90;;;;;;;;;;5072154;28;20056;-77
2021/09/13 11:38:59;;;;;;;1.65;0.77;;;;;;;;;;5074151;28;20076;-78
2021/09/13 11:41:26;;;;;;;2.53;1.00;;;;;;;;;;5071373;28;20061;-78
2021/09/13 11:43:58;;;;;;;3.47;0.93;;;;;;;;;;5061608;28;20040;-77
2021/09/13 11:46:24;;;;;;;3.08;1.10;;;;;;;;;;5063531;28;20496;-77
2021/09/13 11:48:51;;;;;;;2.28;1.15;;;;;;;;;;5055075;28;20189;-81
2021/09/13 11:51:17;;;;;;;2.08;0.88;;;;;;;;;;5064263;28;20028;-77
2021/09/13 11:53:44;;;;;;;2.00;0.90;;;;;;;;;;5065132;28;20036;-77
2021/09/13 11:56:11;;;;;;;3.05;1.08;;;;;;;;;;5071426;28;20184;-78
2021/09/13 11:58:46;;;;;;;3.20;1.00;;;;;;;;;;5082455;28;20594;-75
2021/09/13 12:01:19;;;;;;;2.60;1.00;;;;;;;;;;5057811;28;20044;-77
2021/09/13 12:03:46;;;;;;;2.13;1.00;;;;;;;;;;5059492;28;20036;-78
2021/09/13 12:06:19;;;;;;;1.35;0.80;;;;;;;;;;5064613;28;20032;-77
2021/09/13 12:08:46;;;;;;;3.55;0.98;;;;;;;;;;5049201;28;20032;-77
2021/09/13 12:11:14;;;;;;;3.42;1.20;;;;;;;;;;5059017;28;20044;-78
2021/09/13 12:13:42;;;;;;;2.30;1.00;;;;;;;;;;5065437;28;20036;-78
2021/09/13 12:16:09;;;;;;;2.58;0.88;;;;;;;;;;5066999;28;20096;-78
2021/09/13 12:18:35;;;;;;;1.65;0.90;;;;;;;;;;5069699;28;20079;-76
2021/09/13 12:21:02;;;;;;;2.72;1.15;;;;;;;;;;5080442;28;20217;-77
2021/09/13 12:23:32;;;;;;;4.53;1.48;;;;;;;;;;5084360;28;20078;-77
2021/09/13 12:26:03;;;;;;;2.13;1.10;;;;;;;;;;5085845;28;20068;-77
2021/09/13 12:28:31;;;;;;;2.05;0.80;;;;;;;;;;5077585;28;20945;-77
2021/09/13 12:30:59;;;;;;;2.80;1.33;;;;;;;;;;5084059;28;20048;-77
2021/09/13 12:33:48;;;;;;;3.65;1.05;;;;;;;;;;5058522;28;20067;-76
2021/09/13 12:36:22;;;;;;;3.35;1.30;;;;;;;;;;5073828;28;20442;-77
2021/09/13 12:38:50;;;;;;;2.92;1.48;;;;;;;;;;5077431;28;20071;-78
2021/09/13 12:41:29;;;;;;;2.42;1.40;;;;;;;;;;5060466;28;20079;-78
2021/09/13 12:43:55;;;;;;;2.80;1.23;;;;;;;;;;5074592;28;20143;-77
2021/09/13 12:46:22;;;;;;;3.50;1.30;;;;;;;;;;5076654;28;20074;-78
2021/09/13 12:48:50;;;;;;;2.70;1.05;;;;;;;;;;5060762;28;20638;-78
2021/09/13 12:51:21;;;;;;;2.60;1.05;;;;;;;;;;5076227;28;20344;-78
2021/09/13 12:54:00;;;;;;;2.40;1.00;;;;;;;;;;5074205;28;20081;-78
2021/09/13 12:56:27;;;;;;;2.33;1.10;;;;;;;;;;5069634;28;20077;-77
2021/09/13 12:59:08;;;;;;;2.70;1.27;;;;;;;;;;5063569;28;20189;-79
2021/09/13 13:01:37;;;;;;;2.97;1.00;;;;;;;;;;5071466;28;20051;-76
2021/09/13 13:04:05;;;;;;;2.25;1.00;;;;;;;;;;5063988;28;20036;-77
2021/09/13 13:06:32;;;;;;;2.05;0.90;;;;;;;;;;5056859;28;20060;-77
2021/09/13 13:09:00;;;;;;;2.20;1.00;;;;;;;;;;5072722;28;20074;-77
2021/09/13 13:11:27;;;;;;;3.22;1.08;;;;;;;;;;5076776;28;20055;-76
2021/09/13 13:13:54;;;;;;;2.63;1.10;;;;;;;;;;5079366;28;20059;-76
2021/09/13 13:16:21;;;;;;;2.72;1.20;;;;;;;;;;5084780;28;20444;-77
2021/09/13 13:18:47;;;;;;;2.70;1.17;;;;;;;;;;5072538;28;20071;-77
2021/09/13 13:21:14;;;;;;;3.58;0.90;;;;;;;;;;5084377;28;20128;-77
2021/09/13 13:23:41;;;;;;;2.35;1.00;;;;;;;;;;5078230;28;20484;-76
2021/09/13 13:26:08;;;;;;;2.83;1.00;;;;;;;;;;5062582;28;20055;-77
2021/09/13 13:28:34;;;;;;;1.67;0.82;;;;;;;;;;5078100;28;20748;-77
2021/09/13 13:31:01;;;;;;;1.90;1.10;;;;;;;;;;5073477;28;20051;-78
2021/09/13 13:33:27;;;;;;;2.53;0.90;;;;;;;;;;5083892;28;20500;-77
2021/09/13 13:35:53;;;;;;;2.90;1.20;;;;;;;;;;5076040;28;20433;-77
2021/09/13 13:38:20;;;;;;;2.45;1.05;;;;;;;;;;5080031;28;20131;-78
2021/09/13 13:40:46;;;;;;;2.83;1.17;;;;;;;;;;5082176;28;20091;-77
2021/09/13 13:43:13;;;;;;;2.30;1.30;;;;;;;;;;5077025;28;20066;-77
2021/09/13 13:45:39;;;;;;;3.67;1.05;;;;;;;;;;5084110;28;20060;-77
2021/09/13 13:48:06;;;;;;;3.63;1.00;;;;;;;;;;5080213;28;20455;-77
2021/09/13 13:50:35;;;;;;;2.78;1.15;;;;;;;;;;5076990;28;20029;-77
2021/09/13 13:53:01;;;;;;;2.88;1.10;;;;;;;;;;5070450;28;20722;-77
2021/09/13 13:55:28;;;;;;;2.95;1.10;;;;;;;;;;5077407;28;20052;-77
2021/09/13 13:57:55;;;;;;;2.88;0.82;;;;;;;;;;5077641;28;20172;-76
2021/09/13 14:00:22;;;;;;;1.80;0.90;;;;;;;;;;5067435;28;20067;-77
2021/09/13 14:02:48;;;;;;;2.20;1.10;;;;;;;;;;5079856;28;20075;-77
2021/09/13 14:05:15;;;;;;;2.60;0.98;;;;;;;;;;5074267;28;20125;-77
2021/09/13 14:07:41;;;;;;;3.67;1.00;;;;;;;;;;5060193;28;20063;-78
2021/09/13 14:10:08;;;;;;;2.47;0.80;;;;;;;;;;5066993;28;20075;-79
2021/09/13 14:12:35;;;;;;;2.78;1.08;;;;;;;;;;5058933;28;20693;-78
2021/09/13 14:15:03;;;;;;;2.60;0.93;;;;;;;;;;5072308;28;20052;-78
2021/09/13 14:17:30;;;;;;;2.15;0.75;;;;;;;;;;5079117;28;20049;-78
2021/09/13 14:19:57;;;;;;;3.25;1.52;;;;;;;;;;5065891;28;20129;-78
2021/09/13 14:22:23;;;;;;;1.90;0.80;;;;;;;;;;5073153;28;20036;-78
2021/09/13 14:24:50;;;;;;;3.28;1.08;;;;;;;;;;5075318;28;20075;-78
2021/09/13 14:27:16;;;;;;;2.95;1.13;;;;;;;;;;5068253;28;20115;-77
2021/09/13 14:29:42;;;;;;;4.05;1.15;;;;;;;;;;5054813;28;20067;-77
2021/09/13 14:32:09;;;;;;;2.28;0.93;;;;;;;;;;5066501;28;20060;-78
2021/09/13 14:34:35;;;;;;;2.03;0.80;;;;;;;;;;5083239;28;20503;-78
2021/09/13 14:37:02;;;;;;;2.50;1.00;;;;;;;;;;5061038;28;20546;-77
2021/09/13 14:39:28;;;;;;;2.30;1.35;;;;;;;;;;5076024;28;20060;-77
2021/09/13 14:41:54;;;;;;;2.85;1.00;;;;;;;;;;5054593;28;20116;-77
2021/09/13 14:44:21;;;;;;;2.50;0.80;;;;;;;;;;5072797;28;20155;-77
2021/09/13 14:46:48;;;;;;;2.17;1.02;;;;;;;;;;5068016;28;20037;-77
2021/09/13 14:49:18;;;;;;;1.92;0.80;;;;;;;;;;5071036;28;20075;-77
2021/09/13 14:51:45;;;;;;;3.22;1.08;;;;;;;;;;5065793;28;20118;-78
2021/09/13 14:54:11;;;;;;;2.47;1.25;;;;;;;;;;5066796;28;20113;-77